Time;durP1;ratioP1;P1;durP2;ratioP2;P2;SDS_P1;SDS_P2;PMS_P1;PMS_P2;Temp;Humidity;BMP_temperature;BMP_pressure;BME280_temperature;BME280_humidity;BME280_pressure;Samples;Min_cycle;Max_cycle;Signal;HPM_P1;HPM_P2
2021/03/03 00:00:33;;;;;;;30.77;14.80;;;5.20;99.90;;;;;;5070453;28;20403;-47
2021/03/03 00:02:59;;;;;;;30.53;15.00;;;5.30;99.90;;;;;;5072504;28;20533;-49
2021/03/03 00:05:24;;;;;;;32.67;15.02;;;8.20;99.90;;;;;;5070362;28;20375;-47
2021/03/03 00:07:50;;;;;;;33.80;15.10;;;5.00;99.90;;;;;;5070171;28;20403;-46
2021/03/03 00:10:16;;;;;;;29.50;14.38;;;6.70;99.90;;;;;;5072364;28;21165;-47
2021/03/03 00:12:41;;;;;;;34.33;15.48;;;4.90;99.90;;;;;;5070141;28;20384;-47
2021/03/03 00:15:07;;;;;;;29.30;15.47;;;4.90;99.90;;;;;;5072056;28;20404;-48
2021/03/03 00:17:33;;;;;;;30.25;15.95;;;4.90;99.90;;;;;;5066471;28;20465;-47
2021/03/03 00:19:59;;;;;;;28.40;14.70;;;4.90;99.90;;;;;;5071499;28;20423;-51
2021/03/03 00:22:24;;;;;;;29.20;14.43;;;4.90;99.90;;;;;;5070003;28;20376;-46
2021/03/03 00:24:50;;;;;;;30.80;15.33;;;5.00;99.90;;;;;;5070350;28;20390;-46
2021/03/03 00:27:15;;;;;;;29.90;15.23;;;7.70;99.90;;;;;;5072070;28;20407;-46
2021/03/03 00:29:41;;;;;;;36.13;15.97;;;5.00;99.90;;;;;;5070027;28;20467;-47
2021/03/03 00:32:07;;;;;;;31.87;15.90;;;5.00;99.90;;;;;;5072035;28;20408;-46
2021/03/03 00:34:32;;;;;;;30.40;14.82;;;5.10;99.90;;;;;;5069420;28;20399;-47
2021/03/03 00:36:58;;;;;;;26.90;14.10;;;5.10;99.90;;;;;;5072275;28;20881;-51
2021/03/03 00:39:26;;;;;;;32.07;14.80;;;3.90;99.90;;;;;;5069875;28;20379;-46
2021/03/03 00:41:52;;;;;;;34.25;16.90;;;7.20;99.90;;;;;;5072713;28;20398;-47
2021/03/03 00:44:18;;;;;;;31.60;15.60;;;4.90;99.90;;;;;;5072507;28;20431;-48
2021/03/03 00:46:43;;;;;;;30.33;15.55;;;5.00;99.90;;;;;;5069382;28;20398;-49
2021/03/03 00:49:09;;;;;;;35.10;16.93;;;5.10;99.90;;;;;;5069100;28;20475;-48
2021/03/03 00:51:34;;;;;;;31.38;16.42;;;5.20;99.90;;;;;;5072711;28;20450;-47
2021/03/03 00:54:00;;;;;;;29.60;16.60;;;5.20;99.90;;;;;;5069007;28;20380;-52
2021/03/03 00:56:25;;;;;;;32.40;16.47;;;7.00;99.90;;;;;;5072648;28;20768;-47
2021/03/03 00:58:51;;;;;;;29.80;16.50;;;5.20;99.90;;;;;;5069713;28;20846;-46
2021/03/03 01:01:17;;;;;;;31.00;16.30;;;6.40;99.90;;;;;;5068816;28;20380;-47
2021/03/03 01:03:42;;;;;;;33.42;16.85;;;5.20;99.90;;;;;;5067648;28;20394;-47
2021/03/03 01:06:08;;;;;;;29.87;15.40;;;5.10;99.90;;;;;;5089097;28;20397;-48
2021/03/03 01:08:33;;;;;;;32.13;16.55;;;5.20;99.90;;;;;;5087442;28;20886;-48
2021/03/03 01:10:59;;;;;;;30.30;16.35;;;5.10;99.90;;;;;;5085487;28;20897;-52
2021/03/03 01:13:25;;;;;;;28.50;15.93;;;5.10;99.90;;;;;;5083686;28;20392;-46
2021/03/03 01:15:50;;;;;;;35.15;17.52;;;5.50;99.90;;;;;;5089015;28;20410;-47
2021/03/03 01:18:16;;;;;;;35.50;17.33;;;8.10;99.90;;;;;;5082908;28;20401;-48
2021/03/03 01:20:41;;;;;;;35.55;17.58;;;5.20;99.90;;;;;;5089314;28;20465;-47
2021/03/03 01:23:07;;;;;;;30.33;16.60;;;5.10;99.90;;;;;;5083755;28;20418;-47
2021/03/03 01:25:34;;;;;;;32.43;18.10;;;5.10;99.90;;;;;;5089497;28;20889;-47
2021/03/03 01:27:59;;;;;;;29.83;16.85;;;5.10;99.90;;;;;;5089108;28;20382;-52
2021/03/03 01:30:25;;;;;;;28.33;17.05;;;8.20;99.90;;;;;;5085587;28;20480;-47
2021/03/03 01:32:51;;;;;;;30.57;16.23;;;5.20;99.90;;;;;;5093192;28;20773;-47
2021/03/03 01:35:16;;;;;;;34.22;17.65;;;5.30;99.90;;;;;;5092782;28;20445;-47
2021/03/03 01:37:42;;;;;;;35.30;17.25;;;5.30;99.90;;;;;;5075401;28;20428;-47
2021/03/03 01:40:08;;;;;;;32.80;17.40;;;5.20;99.90;;;;;;5092754;28;20386;-48
2021/03/03 01:42:34;;;;;;;34.95;17.50;;;5.20;99.90;;;;;;5093245;28;20385;-47
2021/03/03 01:45:00;;;;;;;36.80;16.77;;;5.30;99.90;;;;;;5092100;28;20382;-52
2021/03/03 01:47:25;;;;;;;30.70;16.83;;;7.50;99.90;;;;;;5092860;28;20362;-47
2021/03/03 01:49:51;;;;;;;30.48;16.92;;;7.20;99.90;;;;;;5092675;28;20382;-46
2021/03/03 01:52:17;;;;;;;30.17;17.30;;;5.20;99.90;;;;;;5092524;28;20434;-46
2021/03/03 01:54:44;;;;;;;32.65;16.20;;;5.20;99.90;;;;;;5092996;28;20416;-46
2021/03/03 01:57:11;;;;;;;29.25;15.57;;;5.10;99.90;;;;;;5092512;28;20382;-46
2021/03/03 01:59:37;;;;;;;35.47;15.90;;;6.30;99.90;;;;;;5093081;28;20390;-46
2021/03/03 02:02:03;;;;;;;33.37;17.80;;;7.70;99.90;;;;;;5092204;28;20511;-48
2021/03/03 02:04:29;;;;;;;33.47;17.10;;;7.50;99.90;;;;;;5092809;28;20377;-46
2021/03/03 02:07:22;;;;;;;29.98;17.10;;;7.70;99.90;;;;;;5092876;28;20377;-46
2021/03/03 02:09:57;;;;;;;32.60;16.00;;;5.00;99.90;;;;;;5093101;28;20378;-47
2021/03/03 02:12:24;;;;;;;29.48;16.52;;;4.90;99.90;;;;;;5092028;28;20431;-47
2021/03/03 02:14:56;;;;;;;27.02;15.30;;;5.00;99.90;;;;;;5092512;28;20906;-46
2021/03/03 02:17:24;;;;;;;31.65;16.88;;;5.00;99.90;;;;;;5092081;28;20377;-49
2021/03/03 02:19:51;;;;;;;33.65;17.23;;;6.10;99.90;;;;;;5092913;28;20370;-47
2021/03/03 02:22:54;;;;;;;30.55;15.63;;;7.50;99.90;;;;;;5091575;28;20535;-47
2021/03/03 02:25:29;;;;;;;31.00;16.40;;;5.00;99.90;;;;;;5073817;28;20453;-48
2021/03/03 02:28:07;;;;;;;31.88;16.70;;;6.50;99.90;;;;;;5092662;28;20396;-46
2021/03/03 02:30:37;;;;;;;30.88;16.63;;;4.90;99.90;;;;;;5092546;28;20385;-48
2021/03/03 02:33:04;;;;;;;27.83;16.00;;;4.80;99.90;;;;;;5091616;28;20375;-47
2021/03/03 02:35:30;;;;;;;30.07;16.03;;;4.70;99.90;;;;;;5092051;28;20436;-49
2021/03/03 02:37:57;;;;;;;29.13;16.43;;;4.80;99.90;;;;;;5092167;28;20855;-47
2021/03/03 02:40:24;;;;;;;27.65;15.70;;;7.70;99.90;;;;;;5091821;28;20428;-47
2021/03/03 02:42:50;;;;;;;33.85;16.52;;;4.80;99.90;;;;;;5091587;28;20450;-46
2021/03/03 02:45:18;;;;;;;32.45;16.63;;;8.00;99.90;;;;;;5091179;28;20389;-47
2021/03/03 02:47:46;;;;;;;29.65;15.80;;;5.50;99.90;;;;;;5091758;28;20403;-47
2021/03/03 02:50:12;;;;;;;32.30;16.23;;;4.90;99.90;;;;;;5091432;28;20754;-48
2021/03/03 02:52:50;;;;;;;32.45;17.05;;;4.90;99.90;;;;;;5092208;28;20419;-48
2021/03/03 02:55:17;;;;;;;32.60;16.27;;;4.80;99.90;;;;;;5091120;28;20531;-46
2021/03/03 02:57:43;;;;;;;31.73;16.67;;;5.80;99.90;;;;;;5092222;28;20397;-48
2021/03/03 03:00:15;;;;;;;29.25;15.60;;;4.70;99.90;;;;;;5072902;28;20736;-47
2021/03/03 03:02:44;;;;;;;30.30;16.80;;;4.60;99.90;;;;;;5091944;28;20389;-47
2021/03/03 03:05:11;;;;;;;33.63;16.20;;;4.70;99.90;;;;;;5091210;28;20400;-47
2021/03/03 03:07:42;;;;;;;30.42;15.50;;;4.70;99.90;;;;;;5091002;28;20743;-47
2021/03/03 03:10:12;;;;;;;27.55;15.88;;;4.70;99.90;;;;;;5091165;28;20434;-47
2021/03/03 03:12:38;;;;;;;30.08;16.00;;;4.70;99.90;;;;;;5091348;28;20386;-47
2021/03/03 03:15:05;;;;;;;32.03;15.95;;;4.60;99.90;;;;;;5090774;28;20406;-48
2021/03/03 03:17:33;;;;;;;30.27;16.05;;;4.60;99.90;;;;;;5091505;28;20869;-47
2021/03/03 03:20:03;;;;;;;33.40;17.13;;;4.60;99.90;;;;;;5091147;28;20416;-47
2021/03/03 03:22:29;;;;;;;32.95;16.65;;;4.50;99.90;;;;;;5091229;28;20905;-47
2021/03/03 03:24:58;;;;;;;27.73;15.40;;;4.50;99.90;;;;;;5091487;28;20440;-47
2021/03/03 03:27:26;;;;;;;32.65;17.00;;;5.60;99.90;;;;;;5090781;28;20385;-48
2021/03/03 03:29:52;;;;;;;29.05;16.63;;;4.50;99.90;;;;;;5091167;28;20477;-49
2021/03/03 03:32:18;;;;;;;30.63;16.93;;;4.50;99.90;;;;;;5067082;28;20411;-47
2021/03/03 03:34:44;;;;;;;30.77;16.57;;;7.50;99.90;;;;;;5073789;28;20419;-47
2021/03/03 03:37:13;;;;;;;34.92;16.27;;;5.70;99.90;;;;;;5076435;28;20455;-47
2021/03/03 03:39:39;;;;;;;28.95;15.90;;;4.60;99.90;;;;;;5091051;28;20906;-47
2021/03/03 03:42:07;;;;;;;33.10;16.60;;;5.70;99.90;;;;;;5084515;28;20473;-47
2021/03/03 03:44:33;;;;;;;31.33;16.88;;;4.50;99.90;;;;;;5090767;28;20434;-46
2021/03/03 03:46:59;;;;;;;31.90;16.20;;;4.50;99.90;;;;;;5085195;28;20393;-47
2021/03/03 03:49:25;;;;;;;32.45;16.30;;;4.50;99.90;;;;;;5090691;28;20912;-46
2021/03/03 03:51:51;;;;;;;32.03;16.20;;;4.40;99.90;;;;;;5085050;28;20447;-47
2021/03/03 03:54:17;;;;;;;29.80;16.20;;;4.50;99.90;;;;;;5090011;28;20378;-47
2021/03/03 03:56:43;;;;;;;31.52;16.85;;;4.40;99.90;;;;;;5090507;28;20882;-48
2021/03/03 03:59:09;;;;;;;29.42;16.83;;;4.40;99.90;;;;;;5084239;28;20903;-47
2021/03/03 04:01:35;;;;;;;31.63;17.48;;;4.40;99.90;;;;;;5085272;28;20418;-46
2021/03/03 04:04:01;;;;;;;29.60;16.20;;;4.30;99.90;;;;;;5089872;28;20370;-51
2021/03/03 04:06:27;;;;;;;32.80;15.90;;;4.20;99.90;;;;;;5084044;28;20481;-49
2021/03/03 04:08:52;;;;;;;32.10;16.67;;;4.20;99.90;;;;;;5072516;28;20752;-48
2021/03/03 04:11:18;;;;;;;30.40;16.87;;;4.10;99.90;;;;;;5089320;28;20863;-47
2021/03/03 04:13:43;;;;;;;30.42;16.38;;;6.60;99.90;;;;;;5084468;28;20459;-47
2021/03/03 04:16:09;;;;;;;33.07;16.77;;;4.10;99.90;;;;;;5089008;28;20947;-48
2021/03/03 04:18:34;;;;;;;31.67;16.67;;;4.20;99.90;;;;;;5072767;28;20387;-49
2021/03/03 04:21:00;;;;;;;30.80;16.15;;;4.40;99.90;;;;;;5076004;28;20431;-52
2021/03/03 04:23:26;;;;;;;29.07;16.57;;;4.50;99.90;;;;;;5084440;28;20392;-48
2021/03/03 04:25:51;;;;;;;28.90;15.52;;;4.40;99.90;;;;;;5089956;28;20382;-47
2021/03/03 04:28:17;;;;;;;28.50;15.45;;;7.00;99.90;;;;;;5080142;28;20417;-47
2021/03/03 04:30:42;;;;;;;36.20;18.23;;;4.40;99.90;;;;;;5091454;28;20386;-47
2021/03/03 04:33:09;;;;;;;31.17;16.42;;;4.30;99.90;;;;;;5086170;28;20395;-47
2021/03/03 04:35:35;;;;;;;28.45;15.68;;;4.30;99.90;;;;;;5069568;28;20432;-47
2021/03/03 04:38:01;;;;;;;29.87;15.57;;;4.30;99.90;;;;;;5083972;28;20472;-51
2021/03/03 04:40:26;;;;;;;37.17;16.50;;;4.40;99.90;;;;;;5069400;28;20386;-48
2021/03/03 04:42:52;;;;;;;33.53;16.80;;;5.40;99.90;;;;;;5051684;28;20407;-47
2021/03/03 04:45:17;;;;;;;30.38;15.55;;;4.50;99.90;;;;;;5072457;28;20810;-49
2021/03/03 04:47:43;;;;;;;28.30;15.93;;;4.40;99.90;;;;;;5087346;28;20816;-49
2021/03/03 04:50:09;;;;;;;32.15;16.20;;;5.20;99.90;;;;;;5083643;28;20393;-48
2021/03/03 04:52:36;;;;;;;30.55;16.75;;;4.30;99.90;;;;;;5089980;28;20388;-48
2021/03/03 04:55:03;;;;;;;32.90;16.50;;;4.40;99.90;;;;;;5084171;28;20406;-53
2021/03/03 04:57:28;;;;;;;31.40;16.75;;;4.50;99.90;;;;;;5088500;28;20433;-49
2021/03/03 04:59:54;;;;;;;28.37;15.30;;;4.40;99.90;;;;;;5084792;28;20422;-48
2021/03/03 05:02:20;;;;;;;28.40;15.50;;;4.80;99.90;;;;;;5070683;28;20526;-49
2021/03/03 05:04:45;;;;;;;28.35;14.73;;;4.40;99.90;;;;;;5085363;28;20408;-48
2021/03/03 05:07:12;;;;;;;26.57;14.47;;;4.40;99.90;;;;;;5090631;28;20728;-52
2021/03/03 05:09:38;;;;;;;32.47;16.52;;;6.00;99.90;;;;;;5091585;28;20846;-49
2021/03/03 05:12:04;;;;;;;35.78;17.90;;;4.20;99.90;;;;;;5093737;28;20374;-53
2021/03/03 05:14:29;;;;;;;33.25;16.15;;;4.10;99.90;;;;;;5073934;28;20762;-48
2021/03/03 05:16:55;;;;;;;32.85;16.63;;;4.10;99.90;;;;;;5093742;28;20465;-48
2021/03/03 05:19:21;;;;;;;29.97;15.93;;;6.80;99.90;;;;;;5087952;28;20537;-51
2021/03/03 05:21:46;;;;;;;28.40;16.63;;;4.30;99.90;;;;;;5059391;28;20904;-49
2021/03/03 05:24:12;;;;;;;31.75;17.27;;;5.70;99.90;;;;;;5072733;28;20380;-49
2021/03/03 05:26:38;;;;;;;37.93;17.90;;;5.40;99.90;;;;;;5076759;28;20407;-48
2021/03/03 05:29:04;;;;;;;31.88;16.70;;;4.50;99.90;;;;;;5072829;28;20397;-54
2021/03/03 05:31:30;;;;;;;33.67;17.25;;;4.50;99.90;;;;;;5087977;28;20495;-49
2021/03/03 05:33:56;;;;;;;30.80;16.20;;;4.50;99.90;;;;;;5093839;28;20425;-47
2021/03/03 05:36:21;;;;;;;33.30;16.30;;;4.50;99.90;;;;;;5089911;28;20425;-49
2021/03/03 05:38:47;;;;;;;30.23;17.70;;;6.80;99.90;;;;;;5055061;28;20434;-49
2021/03/03 05:41:13;;;;;;;27.63;15.18;;;4.90;99.90;;;;;;5072522;28;20376;-51
2021/03/03 05:43:39;;;;;;;31.98;16.58;;;4.60;99.90;;;;;;5076365;28;20835;-48
2021/03/03 05:46:05;;;;;;;32.33;15.82;;;4.50;99.90;;;;;;5072533;28;20379;-53
2021/03/03 05:48:43;;;;;;;27.60;15.45;;;4.60;99.90;;;;;;5073381;28;20399;-49
2021/03/03 05:51:09;;;;;;;30.33;16.30;;;4.50;99.90;;;;;;5075239;28;20905;-49
2021/03/03 05:53:36;;;;;;;32.28;16.13;;;5.10;99.90;;;;;;5073181;28;20380;-48
2021/03/03 05:56:07;;;;;;;28.15;15.90;;;4.40;99.90;;;;;;5075913;28;20409;-47
2021/03/03 05:58:35;;;;;;;34.57;16.10;;;4.40;99.90;;;;;;5092988;28;20404;-49
2021/03/03 06:01:03;;;;;;;26.15;15.00;;;6.40;99.90;;;;;;5087400;28;20395;-48
2021/03/03 06:03:29;;;;;;;31.05;15.90;;;4.40;99.90;;;;;;5076061;28;20397;-48
2021/03/03 06:05:56;;;;;;;32.35;17.17;;;4.30;99.90;;;;;;5088685;28;20402;-47
2021/03/03 06:08:24;;;;;;;33.70;16.57;;;4.20;99.90;;;;;;5078306;28;20438;-48
2021/03/03 06:10:50;;;;;;;30.48;15.88;;;4.20;99.90;;;;;;5072683;28;20463;-47
2021/03/03 06:13:16;;;;;;;35.03;18.15;;;4.20;99.90;;;;;;5072114;28;20376;-47
2021/03/03 06:15:42;;;;;;;35.05;16.88;;;4.20;99.90;;;;;;5073372;28;20947;-49
2021/03/03 06:18:10;;;;;;;33.10;15.90;;;6.00;99.90;;;;;;5072194;28;20418;-47
2021/03/03 06:20:44;;;;;;;38.95;16.98;;;4.40;99.90;;;;;;5055017;28;20376;-47
2021/03/03 06:23:19;;;;;;;32.33;17.38;;;4.50;99.90;;;;;;5073853;28;20418;-50
2021/03/03 06:26:07;;;;;;;35.33;16.58;;;4.50;99.90;;;;;;5087067;28;20398;-48
2021/03/03 06:28:46;;;;;;;33.47;17.35;;;4.60;99.90;;;;;;5090382;28;20863;-48
2021/03/03 06:31:33;;;;;;;30.65;15.90;;;4.60;99.90;;;;;;5070928;28;20830;-48
2021/03/03 06:34:20;;;;;;;32.97;15.10;;;4.60;99.90;;;;;;5086445;28;20390;-47
2021/03/03 06:36:48;;;;;;;33.30;15.90;;;4.70;99.90;;;;;;5086413;28;20417;-48
2021/03/03 06:39:21;;;;;;;36.47;16.33;;;5.50;99.90;;;;;;5053958;28;20761;-47
2021/03/03 06:41:52;;;;;;;30.52;16.70;;;7.60;99.90;;;;;;5085047;28;20398;-47
2021/03/03 06:44:19;;;;;;;31.85;15.98;;;4.90;99.90;;;;;;5087179;28;20398;-48
2021/03/03 06:47:07;;;;;;;29.17;15.50;;;5.10;99.90;;;;;;5091455;28;20467;-46
2021/03/03 06:49:33;;;;;;;29.95;15.63;;;5.30;99.90;;;;;;5086765;28;20463;-47
2021/03/03 06:51:59;;;;;;;35.70;15.70;;;5.30;99.90;;;;;;5091225;28;20374;-48
2021/03/03 06:54:25;;;;;;;33.40;16.80;;;5.30;99.90;;;;;;5084323;28;20394;-49
2021/03/03 06:56:53;;;;;;;33.65;17.27;;;5.40;99.90;;;;;;5087403;28;20492;-48
2021/03/03 06:59:32;;;;;;;32.90;17.38;;;5.60;99.90;;;;;;5090805;28;20924;-49
2021/03/03 07:02:07;;;;;;;32.08;17.20;;;8.20;99.90;;;;;;5072007;28;20398;-47
2021/03/03 07:04:37;;;;;;;34.67;18.30;;;5.50;99.90;;;;;;5087611;28;20431;-47
2021/03/03 07:07:13;;;;;;;31.33;16.50;;;5.70;99.90;;;;;;5091357;28;20382;-47
2021/03/03 07:09:47;;;;;;;31.73;16.50;;;5.70;99.90;;;;;;5086214;28;20404;-47
2021/03/03 07:12:18;;;;;;;35.95;17.35;;;5.70;99.90;;;;;;5090306;28;20863;-47
2021/03/03 07:14:53;;;;;;;29.50;16.65;;;5.80;99.90;;;;;;5083346;28;20422;-48
2021/03/03 07:17:21;;;;;;;39.45;17.42;;;5.80;99.90;;;;;;5070128;28;20451;-50
2021/03/03 07:20:03;;;;;;;31.73;16.60;;;7.50;99.90;;;;;;5087242;28;20393;-48
2021/03/03 07:22:34;;;;;;;34.15;18.23;;;5.90;99.90;;;;;;5069411;28;20422;-48
2021/03/03 07:25:07;;;;;;;34.13;16.90;;;6.00;99.90;;;;;;5070937;28;20875;-47
2021/03/03 07:27:35;;;;;;;35.38;16.83;;;6.10;99.90;;;;;;5073110;28;20580;-47
2021/03/03 07:30:03;;;;;;;30.50;15.90;;;9.00;99.90;;;;;;5070090;28;20391;-47
2021/03/03 07:32:28;;;;;;;33.35;17.25;;;6.20;99.90;;;;;;5090293;28;20942;-48
2021/03/03 07:34:56;;;;;;;32.85;17.92;;;6.30;99.90;;;;;;5077794;28;20419;-47
2021/03/03 07:37:24;;;;;;;32.67;16.65;;;7.50;99.90;;;;;;5070308;28;20458;-47
2021/03/03 07:40:00;;;;;;;33.53;18.00;;;6.50;99.90;;;;;;5073588;28;20399;-47
2021/03/03 07:42:30;;;;;;;32.65;17.00;;;6.60;99.90;;;;;;5086302;28;20382;-47
2021/03/03 07:44:58;;;;;;;34.80;17.20;;;6.70;99.90;;;;;;5090910;28;20378;-50
2021/03/03 07:47:29;;;;;;;35.37;19.10;;;6.80;99.90;;;;;;5080587;28;20951;-48
2021/03/03 07:50:00;;;;;;;35.85;17.98;;;7.10;99.90;;;;;;5070835;28;20380;-48
2021/03/03 07:52:25;;;;;;;36.75;18.70;;;7.10;99.90;;;;;;5083038;28;20398;-47
2021/03/03 07:54:52;;;;;;;34.13;17.90;;;6.90;99.90;;;;;;5090727;28;20402;-47
2021/03/03 07:57:18;;;;;;;33.35;18.90;;;7.10;99.90;;;;;;5083167;28;20433;-48
2021/03/03 07:59:45;;;;;;;38.88;21.13;;;7.70;99.90;;;;;;5070395;28;20384;-47
2021/03/03 08:02:11;;;;;;;35.33;17.02;;;7.40;99.90;;;;;;5069570;28;20459;-49
2021/03/03 08:04:41;;;;;;;30.95;17.02;;;7.20;99.90;;;;;;5087898;28;20477;-47
2021/03/03 08:07:22;;;;;;;33.83;17.42;;;8.70;99.90;;;;;;5089134;28;20379;-50
2021/03/03 08:10:15;;;;;;;29.98;17.00;;;7.20;99.90;;;;;;5069668;28;20799;-47
2021/03/03 08:13:09;;;;;;;32.63;17.92;;;7.50;99.90;;;;;;5089974;28;20410;-47
2021/03/03 08:15:35;;;;;;;27.35;17.20;;;7.50;99.90;;;;;;5085644;28;20500;-46
2021/03/03 08:18:21;;;;;;;33.83;16.50;;;8.70;99.90;;;;;;5084653;28;20488;-46
2021/03/03 08:20:50;;;;;;;30.50;17.30;;;9.20;99.90;;;;;;5086913;28;20374;-48
2021/03/03 08:23:34;;;;;;;29.67;16.65;;;7.60;99.90;;;;;;5089833;28;20374;-47
2021/03/03 08:26:00;;;;;;;34.95;17.20;;;7.60;99.90;;;;;;5084381;28;20542;-48
2021/03/03 08:28:26;;;;;;;36.45;17.55;;;7.60;99.90;;;;;;5089043;28;20429;-47
2021/03/03 08:31:14;;;;;;;32.83;17.13;;;9.60;99.90;;;;;;5087711;28;20385;-48
2021/03/03 08:33:49;;;;;;;40.95;17.65;;;7.80;99.90;;;;;;5089231;28;20826;-47
2021/03/03 08:36:20;;;;;;;34.92;18.40;;;7.90;99.90;;;;;;5082743;28;20422;-48
2021/03/03 08:38:55;;;;;;;33.72;17.70;;;8.10;99.90;;;;;;5081286;28;20397;-47
2021/03/03 08:41:29;;;;;;;32.20;17.60;;;8.30;99.90;;;;;;5082691;28;20482;-47
2021/03/03 08:44:16;;;;;;;28.52;17.13;;;9.80;99.90;;;;;;5069819;28;20380;-49
2021/03/03 08:46:42;;;;;;;28.00;16.60;;;8.60;99.90;;;;;;5074794;28;20837;-47
2021/03/03 08:49:07;;;;;;;31.25;16.63;;;9.30;99.90;;;;;;5089573;28;20392;-52
2021/03/03 08:51:44;;;;;;;32.42;17.40;;;9.20;99.90;;;;;;5084045;28;20898;-48
2021/03/03 08:54:11;;;;;;;28.30;17.65;;;8.90;99.90;;;;;;5085555;28;20842;-47
2021/03/03 08:56:36;;;;;;;35.13;17.30;;;9.00;99.90;;;;;;5083786;28;20524;-47
2021/03/03 08:59:31;;;;;;;36.97;18.70;;;9.80;99.90;;;;;;5089549;28;20578;-47
2021/03/03 09:02:17;;;;;;;30.63;18.35;;;9.20;99.90;;;;;;5070440;28;20390;-47
2021/03/03 09:04:45;;;;;;;31.30;17.83;;;8.90;99.90;;;;;;5088530;28;20767;-49
2021/03/03 09:07:20;;;;;;;29.50;18.10;;;11.40;99.90;;;;;;5083712;28;20499;-48
2021/03/03 09:09:57;;;;;;;31.38;18.02;;;9.00;99.90;;;;;;5084890;28;20437;-50
2021/03/03 09:12:25;;;;;;;33.83;18.38;;;9.10;99.90;;;;;;5087680;28;20386;-47
2021/03/03 09:14:53;;;;;;;29.10;18.42;;;9.20;99.90;;;;;;5089386;28;20402;-47
2021/03/03 09:17:24;;;;;;;32.42;18.13;;;9.20;99.90;;;;;;5082049;28;20431;-49
2021/03/03 09:19:50;;;;;;;30.95;17.48;;;10.80;99.90;;;;;;5088048;28;20378;-50
2021/03/03 09:22:28;;;;;;;33.60;18.90;;;9.30;99.90;;;;;;5088383;28;20855;-48
2021/03/03 09:25:04;;;;;;;30.98;17.35;;;9.30;99.90;;;;;;5085548;28;20429;-50
2021/03/03 09:27:30;;;;;;;32.70;17.57;;;9.50;99.90;;;;;;5083647;28;20418;-48
2021/03/03 09:29:56;;;;;;;38.15;17.00;;;9.50;99.90;;;;;;5087950;28;20398;-48
2021/03/03 09:32:23;;;;;;;32.22;17.52;;;9.60;99.90;;;;;;5088034;28;20457;-48
2021/03/03 09:34:54;;;;;;;28.95;17.10;;;9.60;99.90;;;;;;5085037;28;20436;-48
2021/03/03 09:37:21;;;;;;;35.38;17.98;;;9.50;99.90;;;;;;5089704;28;20386;-48
2021/03/03 09:39:56;;;;;;;31.42;17.38;;;11.30;99.90;;;;;;5087227;28;20382;-47
2021/03/03 09:42:23;;;;;;;32.72;17.95;;;10.70;99.90;;;;;;5086972;28;20480;-47
2021/03/03 09:44:51;;;;;;;31.52;18.15;;;10.00;99.90;;;;;;5086271;28;20389;-47
2021/03/03 09:47:21;;;;;;;32.58;18.00;;;10.00;99.90;;;;;;5087961;28;20447;-47
2021/03/03 09:49:47;;;;;;;31.05;17.83;;;10.10;99.90;;;;;;5087352;28;20406;-47
2021/03/03 09:52:13;;;;;;;31.27;17.35;;;10.00;99.90;;;;;;5091435;28;20782;-47
2021/03/03 09:54:38;;;;;;;30.80;17.93;;;10.10;99.90;;;;;;5090619;28;20396;-47
2021/03/03 09:57:20;;;;;;;34.17;18.30;;;10.30;99.90;;;;;;5092487;28;20483;-48
2021/03/03 09:59:47;;;;;;;34.03;19.42;;;10.30;99.90;;;;;;5063371;28;20440;-48
2021/03/03 10:02:16;;;;;;;33.50;17.85;;;10.50;99.90;;;;;;5091228;28;20386;-52
2021/03/03 10:04:43;;;;;;;33.83;18.00;;;10.50;99.90;;;;;;5089887;28;20410;-50
2021/03/03 10:07:19;;;;;;;31.33;18.55;;;10.70;99.90;;;;;;5091276;28;20425;-54
2021/03/03 10:09:46;;;;;;;33.58;18.08;;;10.90;99.90;;;;;;5092447;28;20391;-49
2021/03/03 10:12:17;;;;;;;35.58;18.95;;;10.90;99.90;;;;;;5090006;28;20936;-54
2021/03/03 10:15:01;;;;;;;31.42;18.88;;;11.10;99.90;;;;;;5088549;28;20407;-49
2021/03/03 10:17:47;;;;;;;33.45;19.30;;;11.20;99.90;;;;;;5079041;28;20446;-48
2021/03/03 10:20:33;;;;;;;36.58;19.33;;;11.50;99.90;;;;;;5071207;28;21175;-49
2021/03/03 10:23:06;;;;;;;35.72;18.92;;;11.70;99.90;;;;;;5089518;28;20465;-48
2021/03/03 10:25:43;;;;;;;29.30;17.83;;;12.00;99.90;;;;;;5089152;28;20429;-48
2021/03/03 10:28:11;;;;;;;31.55;18.02;;;12.20;99.90;;;;;;5085471;28;20398;-53
2021/03/03 10:30:42;;;;;;;31.33;18.35;;;12.30;99.90;;;;;;5090301;28;20402;-48
2021/03/03 10:33:09;;;;;;;29.75;17.95;;;12.30;99.90;;;;;;5083080;28;20483;-48
2021/03/03 10:35:46;;;;;;;36.95;21.17;;;12.60;99.90;;;;;;5071275;28;20893;-49
2021/03/03 10:38:14;;;;;;;33.92;19.35;;;13.20;99.90;;;;;;5074197;28;20864;-54
2021/03/03 10:40:42;;;;;;;38.00;18.55;;;13.70;99.90;;;;;;5071357;28;20725;-48
2021/03/03 10:43:21;;;;;;;31.60;19.30;;;13.50;99.90;;;;;;5074733;28;20388;-49
2021/03/03 10:46:01;;;;;;;36.45;19.70;;;13.50;99.90;;;;;;5071312;28;20388;-50
2021/03/03 10:48:28;;;;;;;34.78;18.48;;;13.40;99.90;;;;;;5086464;28;20398;-49
2021/03/03 10:50:54;;;;;;;31.20;19.00;;;13.60;99.90;;;;;;5091492;28;20389;-50
2021/03/03 10:53:20;;;;;;;33.45;18.65;;;13.70;99.90;;;;;;5085360;28;20395;-49
2021/03/03 10:55:45;;;;;;;31.08;18.20;;;13.90;99.90;;;;;;5091110;28;20409;-48
2021/03/03 10:58:13;;;;;;;33.90;17.80;;;13.90;99.70;;;;;;5072941;28;20405;-54
2021/03/03 11:01:00;;;;;;;36.72;18.48;;;14.20;99.80;;;;;;5071280;28;20447;-49
2021/03/03 11:03:29;;;;;;;32.45;18.45;;;14.60;98.80;;;;;;5086678;28;20421;-52
2021/03/03 11:05:59;;;;;;;35.33;18.80;;;14.50;98.20;;;;;;5089263;28;20880;-51
2021/03/03 11:08:26;;;;;;;29.08;18.20;;;14.40;98.10;;;;;;5088206;28;20370;-49
2021/03/03 11:11:05;;;;;;;30.08;18.38;;;14.10;98.50;;;;;;5088844;28;20382;-49
2021/03/03 11:13:35;;;;;;;32.07;18.97;;;14.20;98.30;;;;;;5070613;28;20485;-50
2021/03/03 11:16:00;;;;;;;35.60;19.40;;;14.40;98.30;;;;;;5070202;28;20519;-49
2021/03/03 11:18:26;;;;;;;33.45;18.52;;;14.50;98.00;;;;;;5086229;28;20473;-48
2021/03/03 11:20:52;;;;;;;28.70;18.27;;;14.50;98.10;;;;;;5089871;28;20401;-49
2021/03/03 11:23:17;;;;;;;29.27;18.38;;;14.50;97.40;;;;;;5073633;28;20742;-49
2021/03/03 11:25:43;;;;;;;32.87;18.10;;;14.30;97.30;;;;;;5089020;28;20413;-47
2021/03/03 11:28:08;;;;;;;30.33;18.58;;;14.20;97.40;;;;;;5087658;28;20398;-47
2021/03/03 11:30:34;;;;;;;31.70;18.60;;;14.20;96.90;;;;;;5088628;28;20948;-47
2021/03/03 11:33:01;;;;;;;33.43;19.57;;;14.10;97.20;;;;;;5087015;28;20437;-47
2021/03/03 11:35:26;;;;;;;37.20;19.15;;;14.40;97.20;;;;;;5088999;28;20739;-48
2021/03/03 11:37:52;;;;;;;31.95;19.00;;;14.50;97.00;;;;;;5085975;28;20462;-48
2021/03/03 11:40:18;;;;;;;32.33;18.40;;;14.60;96.00;;;;;;5089225;28;20813;-48
2021/03/03 11:42:43;;;;;;;36.15;20.25;;;14.70;95.70;;;;;;5085744;28;20386;-48
2021/03/03 11:45:10;;;;;;;30.80;18.80;;;14.70;95.80;;;;;;5089127;28;20429;-49
2021/03/03 11:47:35;;;;;;;34.08;18.48;;;14.80;95.70;;;;;;5087508;28;20468;-48
2021/03/03 11:50:01;;;;;;;37.30;19.52;;;14.90;95.50;;;;;;5086380;28;20929;-48
2021/03/03 11:52:27;;;;;;;30.80;17.83;;;15.00;95.10;;;;;;5087462;28;20390;-48
2021/03/03 11:54:52;;;;;;;31.33;18.52;;;15.10;94.90;;;;;;5089586;28;20406;-48
2021/03/03 11:57:18;;;;;;;28.23;18.40;;;15.20;94.40;;;;;;5085622;28;20419;-48
2021/03/03 11:59:44;;;;;;;33.75;17.40;;;15.00;94.40;;;;;;5084505;28;20436;-48
2021/03/03 12:02:09;;;;;;;29.67;18.10;;;15.00;94.00;;;;;;5085376;28;20382;-47
2021/03/03 12:04:35;;;;;;;30.88;17.90;;;15.10;94.00;;;;;;5083506;28;20389;-48
2021/03/03 12:07:01;;;;;;;29.95;18.45;;;15.30;94.20;;;;;;5083470;28;20863;-49
2021/03/03 12:09:27;;;;;;;33.55;19.27;;;15.40;94.70;;;;;;5089219;28;20378;-49
2021/03/03 12:11:52;;;;;;;29.63;17.55;;;15.40;94.30;;;;;;5087104;28;20879;-48
2021/03/03 12:14:18;;;;;;;32.73;18.70;;;15.60;93.80;;;;;;5088443;28;20381;-50
2021/03/03 12:16:45;;;;;;;27.23;17.75;;;15.60;93.60;;;;;;5088961;28;20870;-48
2021/03/03 12:19:11;;;;;;;32.87;18.30;;;15.50;93.00;;;;;;5085707;28;20390;-49
2021/03/03 12:21:37;;;;;;;30.80;17.80;;;15.50;93.10;;;;;;5088931;28;20660;-49
2021/03/03 12:24:03;;;;;;;29.83;17.80;;;15.50;93.10;;;;;;5088339;28;20481;-49
2021/03/03 12:26:28;;;;;;;30.13;17.50;;;15.50;92.20;;;;;;5087170;28;20440;-50
2021/03/03 12:28:54;;;;;;;33.80;18.42;;;15.40;92.80;;;;;;5089648;28;21052;-47
2021/03/03 12:31:20;;;;;;;31.00;17.70;;;15.40;92.40;;;;;;5084844;28;20413;-47
2021/03/03 12:33:45;;;;;;;32.23;17.87;;;15.60;92.20;;;;;;5089206;28;20469;-48
2021/03/03 12:36:11;;;;;;;33.13;19.02;;;15.70;92.30;;;;;;5088965;28;20559;-49
2021/03/03 12:38:36;;;;;;;32.13;18.00;;;15.70;91.50;;;;;;5086478;28;21207;-50
2021/03/03 12:41:03;;;;;;;27.60;17.53;;;15.80;91.30;;;;;;5089996;28;20447;-48